sensor_id;sensor_type;location;lat;lon;timestamp;P1;durP1;ratioP1;P2;durP2;ratioP2
2338;SDS011;1180;51.438;6.978;2023-07-08T00:00:12;4.80;;;2.90;;
2338;SDS011;1180;51.438;6.978;2023-07-08T00:02:41;3.50;;;2.77;;
2338;SDS011;1180;51.438;6.978;2023-07-08T00:05:10;2.93;;;2.67;;
2338;SDS011;1180;51.438;6.978;2023-07-08T00:07:37;2.90;;;2.57;;
2338;SDS011;1180;51.438;6.978;2023-07-08T00:10:12;3.13;;;2.77;;
2338;SDS011;1180;51.438;6.978;2023-07-08T00:12:41;3.30;;;2.70;;
2338;SDS011;1180;51.438;6.978;2023-07-08T00:15:08;3.33;;;3.03;;
2338;SDS011;1180;51.438;6.978;2023-07-08T00:17:34;3.40;;;3.10;;
2338;SDS011;1180;51.438;6.978;2023-07-08T00:20:00;3.17;;;2.90;;
2338;SDS011;1180;51.438;6.978;2023-07-08T00:22:25;3.20;;;2.90;;
2338;SDS011;1180;51.438;6.978;2023-07-08T00:24:51;5.23;;;3.07;;
2338;SDS011;1180;51.438;6.978;2023-07-08T00:27:16;5.60;;;3.03;;
2338;SDS011;1180;51.438;6.978;2023-07-08T00:29:42;3.30;;;3.00;;
2338;SDS011;1180;51.438;6.978;2023-07-08T00:32:13;3.27;;;2.97;;
2338;SDS011;1180;51.438;6.978;2023-07-08T00:34:39;2.90;;;2.60;;
2338;SDS011;1180;51.438;6.978;2023-07-08T00:37:08;4.17;;;2.83;;
2338;SDS011;1180;51.438;6.978;2023-07-08T00:39:36;2.47;;;2.30;;
2338;SDS011;1180;51.438;6.978;2023-07-08T00:42:01;2.97;;;2.77;;
2338;SDS011;1180;51.438;6.978;2023-07-08T00:44:50;2.63;;;2.43;;
2338;SDS011;1180;51.438;6.978;2023-07-08T00:47:16;4.87;;;2.70;;
2338;SDS011;1180;51.438;6.978;2023-07-08T00:49:55;4.10;;;2.73;;
2338;SDS011;1180;51.438;6.978;2023-07-08T00:52:25;4.20;;;2.70;;
2338;SDS011;1180;51.438;6.978;2023-07-08T00:54:56;3.23;;;2.93;;
2338;SDS011;1180;51.438;6.978;2023-07-08T00:57:28;3.23;;;2.80;;
2338;SDS011;1180;51.438;6.978;2023-07-08T00:59:58;2.63;;;2.43;;
2338;SDS011;1180;51.438;6.978;2023-07-08T01:02:41;2.50;;;2.30;;
2338;SDS011;1180;51.438;6.978;2023-07-08T01:05:19;3.70;;;2.90;;
2338;SDS011;1180;51.438;6.978;2023-07-08T01:07:50;3.03;;;2.73;;
2338;SDS011;1180;51.438;6.978;2023-07-08T01:10:28;3.67;;;2.40;;
2338;SDS011;1180;51.438;6.978;2023-07-08T01:13:01;2.83;;;2.63;;
2338;SDS011;1180;51.438;6.978;2023-07-08T01:15:34;2.30;;;2.07;;
2338;SDS011;1180;51.438;6.978;2023-07-08T01:18:04;5.83;;;2.97;;
2338;SDS011;1180;51.438;6.978;2023-07-08T01:20:31;2.97;;;2.67;;
2338;SDS011;1180;51.438;6.978;2023-07-08T01:22:57;2.50;;;2.30;;
2338;SDS011;1180;51.438;6.978;2023-07-08T01:25:23;2.90;;;2.60;;
2338;SDS011;1180;51.438;6.978;2023-07-08T01:27:49;2.73;;;2.43;;
2338;SDS011;1180;51.438;6.978;2023-07-08T01:30:19;6.40;;;3.13;;
2338;SDS011;1180;51.438;6.978;2023-07-08T01:32:47;3.57;;;3.27;;
2338;SDS011;1180;51.438;6.978;2023-07-08T01:35:15;3.10;;;2.60;;
2338;SDS011;1180;51.438;6.978;2023-07-08T01:37:43;3.17;;;2.50;;
2338;SDS011;1180;51.438;6.978;2023-07-08T01:42:42;3.27;;;2.97;;
2338;SDS011;1180;51.438;6.978;2023-07-08T01:45:11;2.67;;;2.47;;
2338;SDS011;1180;51.438;6.978;2023-07-08T01:47:39;4.33;;;2.97;;
2338;SDS011;1180;51.438;6.978;2023-07-08T01:50:07;6.07;;;2.83;;
2338;SDS011;1180;51.438;6.978;2023-07-08T01:52:35;3.33;;;3.03;;
2338;SDS011;1180;51.438;6.978;2023-07-08T01:55:02;3.90;;;2.97;;
2338;SDS011;1180;51.438;6.978;2023-07-08T01:57:28;3.03;;;2.73;;
2338;SDS011;1180;51.438;6.978;2023-07-08T01:59:54;3.23;;;3.00;;
2338;SDS011;1180;51.438;6.978;2023-07-08T02:02:20;4.37;;;3.57;;
2338;SDS011;1180;51.438;6.978;2023-07-08T02:04:47;3.13;;;2.23;;
2338;SDS011;1180;51.438;6.978;2023-07-08T02:07:13;2.80;;;2.47;;
2338;SDS011;1180;51.438;6.978;2023-07-08T02:09:39;2.80;;;2.60;;
2338;SDS011;1180;51.438;6.978;2023-07-08T02:12:05;3.20;;;2.93;;
2338;SDS011;1180;51.438;6.978;2023-07-08T02:14:33;2.77;;;2.33;;
2338;SDS011;1180;51.438;6.978;2023-07-08T02:16:59;3.00;;;2.70;;
2338;SDS011;1180;51.438;6.978;2023-07-08T02:19:24;3.40;;;3.07;;
2338;SDS011;1180;51.438;6.978;2023-07-08T02:21:50;2.83;;;2.23;;
2338;SDS011;1180;51.438;6.978;2023-07-08T02:24:20;2.53;;;2.33;;
2338;SDS011;1180;51.438;6.978;2023-07-08T02:26:47;3.57;;;2.47;;
2338;SDS011;1180;51.438;6.978;2023-07-08T02:29:14;2.60;;;2.40;;
2338;SDS011;1180;51.438;6.978;2023-07-08T02:31:40;3.00;;;2.70;;
2338;SDS011;1180;51.438;6.978;2023-07-08T02:34:06;3.10;;;2.33;;
2338;SDS011;1180;51.438;6.978;2023-07-08T02:36:33;4.17;;;3.77;;
2338;SDS011;1180;51.438;6.978;2023-07-08T02:38:59;3.17;;;2.87;;
2338;SDS011;1180;51.438;6.978;2023-07-08T02:41:25;4.10;;;2.80;;
2338;SDS011;1180;51.438;6.978;2023-07-08T02:43:51;3.90;;;2.97;;
2338;SDS011;1180;51.438;6.978;2023-07-08T02:46:18;6.40;;;3.30;;
2338;SDS011;1180;51.438;6.978;2023-07-08T02:48:44;3.70;;;3.20;;
2338;SDS011;1180;51.438;6.978;2023-07-08T02:51:10;2.67;;;2.43;;
2338;SDS011;1180;51.438;6.978;2023-07-08T02:53:36;3.60;;;2.70;;
2338;SDS011;1180;51.438;6.978;2023-07-08T02:56:05;3.10;;;2.60;;
2338;SDS011;1180;51.438;6.978;2023-07-08T02:58:31;5.90;;;3.87;;
2338;SDS011;1180;51.438;6.978;2023-07-08T03:00:57;3.20;;;2.90;;
2338;SDS011;1180;51.438;6.978;2023-07-08T03:03:26;3.07;;;2.77;;
2338;SDS011;1180;51.438;6.978;2023-07-08T03:05:59;3.60;;;3.30;;
2338;SDS011;1180;51.438;6.978;2023-07-08T03:08:27;2.90;;;2.70;;
2338;SDS011;1180;51.438;6.978;2023-07-08T03:10:59;2.77;;;2.57;;
2338;SDS011;1180;51.438;6.978;2023-07-08T03:13:27;3.23;;;2.93;;
2338;SDS011;1180;51.438;6.978;2023-07-08T03:15:53;2.87;;;2.67;;
2338;SDS011;1180;51.438;6.978;2023-07-08T03:18:22;3.27;;;2.97;;
2338;SDS011;1180;51.438;6.978;2023-07-08T03:20:49;5.23;;;3.10;;
2338;SDS011;1180;51.438;6.978;2023-07-08T03:23:15;2.80;;;2.60;;
2338;SDS011;1180;51.438;6.978;2023-07-08T03:25:41;3.80;;;2.63;;
2338;SDS011;1180;51.438;6.978;2023-07-08T03:28:07;4.43;;;3.10;;
2338;SDS011;1180;51.438;6.978;2023-07-08T03:30:40;3.20;;;2.80;;
2338;SDS011;1180;51.438;6.978;2023-07-08T03:33:06;3.60;;;3.27;;
2338;SDS011;1180;51.438;6.978;2023-07-08T03:35:34;3.37;;;2.87;;
2338;SDS011;1180;51.438;6.978;2023-07-08T03:38:00;2.70;;;2.50;;
2338;SDS011;1180;51.438;6.978;2023-07-08T03:40:26;3.13;;;2.87;;
2338;SDS011;1180;51.438;6.978;2023-07-08T03:42:52;3.33;;;3.03;;
2338;SDS011;1180;51.438;6.978;2023-07-08T03:45:18;3.20;;;2.90;;
2338;SDS011;1180;51.438;6.978;2023-07-08T03:47:44;8.37;;;3.20;;
2338;SDS011;1180;51.438;6.978;2023-07-08T03:50:13;4.37;;;3.80;;
2338;SDS011;1180;51.438;6.978;2023-07-08T03:52:44;2.70;;;2.50;;
2338;SDS011;1180;51.438;6.978;2023-07-08T03:55:11;2.53;;;2.30;;
2338;SDS011;1180;51.438;6.978;2023-07-08T03:57:38;3.43;;;2.97;;
2338;SDS011;1180;51.438;6.978;2023-07-08T04:00:05;9.20;;;3.50;;
2338;SDS011;1180;51.438;6.978;2023-07-08T04:02:38;3.20;;;2.83;;
2338;SDS011;1180;51.438;6.978;2023-07-08T04:05:05;5.20;;;3.70;;
2338;SDS011;1180;51.438;6.978;2023-07-08T04:07:33;3.70;;;3.07;;
2338;SDS011;1180;51.438;6.978;2023-07-08T04:10:00;3.43;;;3.03;;
2338;SDS011;1180;51.438;6.978;2023-07-08T04:12:26;3.47;;;3.20;;
2338;SDS011;1180;51.438;6.978;2023-07-08T04:14:53;4.73;;;3.60;;
2338;SDS011;1180;51.438;6.978;2023-07-08T04:17:20;2.70;;;2.50;;
2338;SDS011;1180;51.438;6.978;2023-07-08T04:19:48;2.70;;;2.50;;
2338;SDS011;1180;51.438;6.978;2023-07-08T04:22:14;3.40;;;3.10;;
2338;SDS011;1180;51.438;6.978;2023-07-08T04:24:40;3.17;;;2.87;;
2338;SDS011;1180;51.438;6.978;2023-07-08T04:27:07;3.80;;;2.90;;
2338;SDS011;1180;51.438;6.978;2023-07-08T04:29:39;4.00;;;3.00;;
2338;SDS011;1180;51.438;6.978;2023-07-08T04:32:06;3.67;;;3.10;;
2338;SDS011;1180;51.438;6.978;2023-07-08T04:34:33;3.53;;;3.23;;
2338;SDS011;1180;51.438;6.978;2023-07-08T04:36:59;4.30;;;2.77;;
2338;SDS011;1180;51.438;6.978;2023-07-08T04:39:24;3.80;;;2.70;;
2338;SDS011;1180;51.438;6.978;2023-07-08T04:41:50;3.90;;;3.00;;
2338;SDS011;1180;51.438;6.978;2023-07-08T04:44:16;2.63;;;2.37;;
2338;SDS011;1180;51.438;6.978;2023-07-08T04:46:47;3.00;;;2.60;;
2338;SDS011;1180;51.438;6.978;2023-07-08T04:49:16;3.37;;;3.07;;
2338;SDS011;1180;51.438;6.978;2023-07-08T04:51:43;3.90;;;3.07;;
2338;SDS011;1180;51.438;6.978;2023-07-08T04:54:11;3.33;;;3.03;;
2338;SDS011;1180;51.438;6.978;2023-07-08T04:56:42;3.17;;;2.90;;
2338;SDS011;1180;51.438;6.978;2023-07-08T04:59:13;3.30;;;3.00;;
2338;SDS011;1180;51.438;6.978;2023-07-08T05:01:41;5.07;;;3.17;;
2338;SDS011;1180;51.438;6.978;2023-07-08T05:04:07;3.73;;;3.37;;
2338;SDS011;1180;51.438;6.978;2023-07-08T05:06:35;3.10;;;2.80;;
2338;SDS011;1180;51.438;6.978;2023-07-08T05:09:01;2.93;;;2.63;;
2338;SDS011;1180;51.438;6.978;2023-07-08T05:11:28;4.17;;;3.03;;
2338;SDS011;1180;51.438;6.978;2023-07-08T05:13:54;3.23;;;2.93;;
2338;SDS011;1180;51.438;6.978;2023-07-08T05:16:20;4.53;;;3.80;;
2338;SDS011;1180;51.438;6.978;2023-07-08T05:18:46;3.90;;;3.60;;
2338;SDS011;1180;51.438;6.978;2023-07-08T05:21:12;3.73;;;3.43;;
2338;SDS011;1180;51.438;6.978;2023-07-08T05:23:38;3.90;;;3.47;;
2338;SDS011;1180;51.438;6.978;2023-07-08T05:26:04;3.10;;;2.83;;
2338;SDS011;1180;51.438;6.978;2023-07-08T05:28:32;4.60;;;3.73;;
2338;SDS011;1180;51.438;6.978;2023-07-08T05:30:58;3.57;;;3.27;;
2338;SDS011;1180;51.438;6.978;2023-07-08T05:33:24;5.70;;;3.20;;
2338;SDS011;1180;51.438;6.978;2023-07-08T05:35:52;5.70;;;3.20;;
2338;SDS011;1180;51.438;6.978;2023-07-08T05:38:18;4.57;;;3.40;;
2338;SDS011;1180;51.438;6.978;2023-07-08T05:40:48;4.00;;;3.40;;
2338;SDS011;1180;51.438;6.978;2023-07-08T05:43:15;3.53;;;3.23;;
2338;SDS011;1180;51.438;6.978;2023-07-08T05:45:42;3.40;;;3.00;;
2338;SDS011;1180;51.438;6.978;2023-07-08T05:48:07;3.30;;;2.80;;
2338;SDS011;1180;51.438;6.978;2023-07-08T05:50:33;5.50;;;3.60;;
2338;SDS011;1180;51.438;6.978;2023-07-08T05:52:58;4.83;;;3.43;;
2338;SDS011;1180;51.438;6.978;2023-07-08T05:55:25;4.60;;;4.20;;
2338;SDS011;1180;51.438;6.978;2023-07-08T05:57:51;4.77;;;3.70;;
2338;SDS011;1180;51.438;6.978;2023-07-08T06:00:17;4.23;;;3.83;;
2338;SDS011;1180;51.438;6.978;2023-07-08T06:02:42;4.27;;;3.77;;
2338;SDS011;1180;51.438;6.978;2023-07-08T06:05:08;4.67;;;4.17;;
2338;SDS011;1180;51.438;6.978;2023-07-08T06:07:34;4.43;;;4.03;;
2338;SDS011;1180;51.438;6.978;2023-07-08T06:09:59;5.00;;;4.50;;
2338;SDS011;1180;51.438;6.978;2023-07-08T06:12:25;4.37;;;3.97;;
2338;SDS011;1180;51.438;6.978;2023-07-08T06:14:52;4.97;;;3.60;;
2338;SDS011;1180;51.438;6.978;2023-07-08T06:17:17;4.77;;;4.27;;
2338;SDS011;1180;51.438;6.978;2023-07-08T06:19:43;5.63;;;4.30;;
2338;SDS011;1180;51.438;6.978;2023-07-08T06:22:09;8.80;;;3.80;;
2338;SDS011;1180;51.438;6.978;2023-07-08T06:24:35;5.40;;;3.80;;
2338;SDS011;1180;51.438;6.978;2023-07-08T06:27:01;4.83;;;3.33;;
2338;SDS011;1180;51.438;6.978;2023-07-08T06:29:27;4.80;;;3.87;;
2338;SDS011;1180;51.438;6.978;2023-07-08T06:31:52;4.60;;;4.20;;
2338;SDS011;1180;51.438;6.978;2023-07-08T06:34:18;5.47;;;3.50;;
2338;SDS011;1180;51.438;6.978;2023-07-08T06:36:47;4.23;;;3.83;;
2338;SDS011;1180;51.438;6.978;2023-07-08T06:39:13;6.00;;;4.30;;
2338;SDS011;1180;51.438;6.978;2023-07-08T06:41:39;4.70;;;4.30;;
2338;SDS011;1180;51.438;6.978;2023-07-08T06:44:04;4.40;;;4.00;;
2338;SDS011;1180;51.438;6.978;2023-07-08T06:46:30;6.37;;;4.70;;
2338;SDS011;1180;51.438;6.978;2023-07-08T06:48:56;5.67;;;4.50;;
2338;SDS011;1180;51.438;6.978;2023-07-08T06:51:22;4.80;;;4.30;;
2338;SDS011;1180;51.438;6.978;2023-07-08T06:53:48;5.20;;;4.60;;
2338;SDS011;1180;51.438;6.978;2023-07-08T06:56:14;4.07;;;3.67;;
2338;SDS011;1180;51.438;6.978;2023-07-08T06:58:40;6.30;;;4.07;;
2338;SDS011;1180;51.438;6.978;2023-07-08T07:01:06;5.00;;;4.50;;
2338;SDS011;1180;51.438;6.978;2023-07-08T07:03:31;4.83;;;4.17;;
2338;SDS011;1180;51.438;6.978;2023-07-08T07:05:57;5.57;;;4.90;;
2338;SDS011;1180;51.438;6.978;2023-07-08T07:08:23;7.70;;;4.97;;
2338;SDS011;1180;51.438;6.978;2023-07-08T07:10:49;4.83;;;4.37;;
2338;SDS011;1180;51.438;6.978;2023-07-08T07:13:14;6.37;;;5.20;;
2338;SDS011;1180;51.438;6.978;2023-07-08T07:15:40;6.00;;;4.60;;
2338;SDS011;1180;51.438;6.978;2023-07-08T07:18:06;4.70;;;4.30;;
2338;SDS011;1180;51.438;6.978;2023-07-08T07:20:32;7.00;;;4.30;;
2338;SDS011;1180;51.438;6.978;2023-07-08T07:22:59;6.63;;;4.80;;
2338;SDS011;1180;51.438;6.978;2023-07-08T07:25:25;4.83;;;4.40;;
2338;SDS011;1180;51.438;6.978;2023-07-08T07:27:50;5.47;;;4.97;;
2338;SDS011;1180;51.438;6.978;2023-07-08T07:30:17;5.33;;;4.23;;
2338;SDS011;1180;51.438;6.978;2023-07-08T07:32:44;4.50;;;4.10;;
2338;SDS011;1180;51.438;6.978;2023-07-08T07:35:10;5.60;;;4.87;;
2338;SDS011;1180;51.438;6.978;2023-07-08T07:37:39;6.23;;;4.87;;
2338;SDS011;1180;51.438;6.978;2023-07-08T07:40:11;5.03;;;4.53;;
2338;SDS011;1180;51.438;6.978;2023-07-08T07:42:40;10.03;;;5.50;;
2338;SDS011;1180;51.438;6.978;2023-07-08T07:45:07;6.57;;;4.63;;
2338;SDS011;1180;51.438;6.978;2023-07-08T07:47:33;8.27;;;4.77;;
2338;SDS011;1180;51.438;6.978;2023-07-08T07:50:00;6.67;;;6.00;;
2338;SDS011;1180;51.438;6.978;2023-07-08T07:52:26;4.93;;;4.53;;
2338;SDS011;1180;51.438;6.978;2023-07-08T07:54:51;7.90;;;6.57;;
2338;SDS011;1180;51.438;6.978;2023-07-08T07:57:19;10.20;;;6.00;;
2338;SDS011;1180;51.438;6.978;2023-07-08T07:59:45;5.97;;;5.43;;
2338;SDS011;1180;51.438;6.978;2023-07-08T08:02:11;6.87;;;5.00;;
2338;SDS011;1180;51.438;6.978;2023-07-08T08:04:37;6.27;;;5.37;;
2338;SDS011;1180;51.438;6.978;2023-07-08T08:07:03;5.60;;;4.47;;
2338;SDS011;1180;51.438;6.978;2023-07-08T08:09:29;6.57;;;4.50;;
2338;SDS011;1180;51.438;6.978;2023-07-08T08:11:55;8.40;;;6.17;;
2338;SDS011;1180;51.438;6.978;2023-07-08T08:14:21;9.43;;;5.93;;
2338;SDS011;1180;51.438;6.978;2023-07-08T08:16:47;6.33;;;5.00;;
2338;SDS011;1180;51.438;6.978;2023-07-08T08:19:13;8.13;;;6.40;;
2338;SDS011;1180;51.438;6.978;2023-07-08T08:21:39;8.20;;;5.20;;
2338;SDS011;1180;51.438;6.978;2023-07-08T08:24:05;7.53;;;5.17;;
2338;SDS011;1180;51.438;6.978;2023-07-08T08:26:31;6.27;;;5.67;;
2338;SDS011;1180;51.438;6.978;2023-07-08T08:28:56;5.83;;;4.80;;
2338;SDS011;1180;51.438;6.978;2023-07-08T08:31:22;5.20;;;4.67;;
2338;SDS011;1180;51.438;6.978;2023-07-08T08:33:48;6.30;;;5.53;;
2338;SDS011;1180;51.438;6.978;2023-07-08T08:36:16;6.30;;;5.70;;
2338;SDS011;1180;51.438;6.978;2023-07-08T08:38:42;5.90;;;5.20;;
2338;SDS011;1180;51.438;6.978;2023-07-08T08:41:18;6.00;;;5.13;;
2338;SDS011;1180;51.438;6.978;2023-07-08T08:43:56;7.07;;;6.40;;
2338;SDS011;1180;51.438;6.978;2023-07-08T08:46:36;6.03;;;5.53;;
2338;SDS011;1180;51.438;6.978;2023-07-08T08:51:46;6.17;;;5.57;;
2338;SDS011;1180;51.438;6.978;2023-07-08T08:54:13;5.77;;;5.27;;
2338;SDS011;1180;51.438;6.978;2023-07-08T08:56:41;6.27;;;5.20;;
2338;SDS011;1180;51.438;6.978;2023-07-08T08:59:49;5.73;;;5.23;;
2338;SDS011;1180;51.438;6.978;2023-07-08T09:05:04;4.90;;;4.40;;
2338;SDS011;1180;51.438;6.978;2023-07-08T09:10:52;4.57;;;4.17;;
2338;SDS011;1180;51.438;6.978;2023-07-08T09:13:41;5.77;;;4.90;;
2338;SDS011;1180;51.438;6.978;2023-07-08T09:16:24;6.17;;;5.60;;
2338;SDS011;1180;51.438;6.978;2023-07-08T09:19:06;5.23;;;4.67;;
2338;SDS011;1180;51.438;6.978;2023-07-08T09:24:26;6.10;;;5.43;;
2338;SDS011;1180;51.438;6.978;2023-07-08T09:26:57;5.90;;;4.73;;
2338;SDS011;1180;51.438;6.978;2023-07-08T09:29:26;5.83;;;5.33;;
2338;SDS011;1180;51.438;6.978;2023-07-08T09:31:52;5.83;;;5.20;;
2338;SDS011;1180;51.438;6.978;2023-07-08T09:34:20;7.00;;;4.87;;
2338;SDS011;1180;51.438;6.978;2023-07-08T09:36:48;8.23;;;5.50;;
2338;SDS011;1180;51.438;6.978;2023-07-08T09:39:17;8.00;;;5.67;;
2338;SDS011;1180;51.438;6.978;2023-07-08T09:41:45;6.13;;;5.10;;
2338;SDS011;1180;51.438;6.978;2023-07-08T09:46:44;5.40;;;4.90;;
2338;SDS011;1180;51.438;6.978;2023-07-08T09:49:18;5.40;;;4.90;;
2338;SDS011;1180;51.438;6.978;2023-07-08T09:51:44;5.30;;;4.80;;
2338;SDS011;1180;51.438;6.978;2023-07-08T09:54:11;6.67;;;5.07;;
2338;SDS011;1180;51.438;6.978;2023-07-08T09:56:44;6.03;;;4.93;;
2338;SDS011;1180;51.438;6.978;2023-07-08T09:59:19;7.07;;;4.97;;
2338;SDS011;1180;51.438;6.978;2023-07-08T10:01:49;5.20;;;4.60;;
2338;SDS011;1180;51.438;6.978;2023-07-08T10:04:14;6.73;;;5.70;;
2338;SDS011;1180;51.438;6.978;2023-07-08T10:06:44;4.50;;;4.10;;
2338;SDS011;1180;51.438;6.978;2023-07-08T10:09:14;4.57;;;4.17;;
2338;SDS011;1180;51.438;6.978;2023-07-08T10:11:49;5.60;;;5.10;;
2338;SDS011;1180;51.438;6.978;2023-07-08T10:15:11;4.30;;;3.97;;
2338;SDS011;1180;51.438;6.978;2023-07-08T10:17:17;4.67;;;4.10;;
2338;SDS011;1180;51.438;6.978;2023-07-08T10:19:45;4.87;;;4.47;;
2338;SDS011;1180;51.438;6.978;2023-07-08T10:28:20;4.77;;;3.53;;
2338;SDS011;1180;51.438;6.978;2023-07-08T10:39:17;4.63;;;3.70;;
2338;SDS011;1180;51.438;6.978;2023-07-08T10:56:23;4.53;;;4.03;;
2338;SDS011;1180;51.438;6.978;2023-07-08T10:59:06;4.43;;;3.97;;
2338;SDS011;1180;51.438;6.978;2023-07-08T11:10:01;4.93;;;4.50;;
2338;SDS011;1180;51.438;6.978;2023-07-08T11:17:56;3.90;;;3.50;;
2338;SDS011;1180;51.438;6.978;2023-07-08T11:20:41;4.23;;;3.83;;
2338;SDS011;1180;51.438;6.978;2023-07-08T11:28:58;4.90;;;4.00;;
2338;SDS011;1180;51.438;6.978;2023-07-08T11:31:27;6.80;;;3.87;;
2338;SDS011;1180;51.438;6.978;2023-07-08T11:33:56;4.63;;;4.23;;
2338;SDS011;1180;51.438;6.978;2023-07-08T11:36:23;5.07;;;3.70;;
2338;SDS011;1180;51.438;6.978;2023-07-08T11:38:52;6.07;;;3.67;;
2338;SDS011;1180;51.438;6.978;2023-07-08T11:41:23;4.83;;;4.10;;
2338;SDS011;1180;51.438;6.978;2023-07-08T11:43:57;3.30;;;3.00;;
2338;SDS011;1180;51.438;6.978;2023-07-08T11:46:29;4.50;;;4.10;;
2338;SDS011;1180;51.438;6.978;2023-07-08T11:49:04;9.47;;;5.83;;
2338;SDS011;1180;51.438;6.978;2023-07-08T11:51:38;4.63;;;4.10;;
2338;SDS011;1180;51.438;6.978;2023-07-08T11:59:42;6.33;;;4.00;;
2338;SDS011;1180;51.438;6.978;2023-07-08T12:02:17;5.53;;;3.80;;
2338;SDS011;1180;51.438;6.978;2023-07-08T12:04:53;4.90;;;4.20;;
2338;SDS011;1180;51.438;6.978;2023-07-08T12:07:31;4.30;;;3.53;;
2338;SDS011;1180;51.438;6.978;2023-07-08T12:10:06;5.33;;;4.27;;
2338;SDS011;1180;51.438;6.978;2023-07-08T12:12:44;4.40;;;3.97;;
2338;SDS011;1180;51.438;6.978;2023-07-08T12:15:30;6.83;;;4.23;;
2338;SDS011;1180;51.438;6.978;2023-07-08T12:18:06;4.60;;;4.20;;
2338;SDS011;1180;51.438;6.978;2023-07-08T12:20:36;4.37;;;3.97;;
2338;SDS011;1180;51.438;6.978;2023-07-08T12:23:19;4.90;;;3.53;;
2338;SDS011;1180;51.438;6.978;2023-07-08T12:25:47;4.30;;;3.90;;
2338;SDS011;1180;51.438;6.978;2023-07-08T12:28:13;6.43;;;3.43;;
2338;SDS011;1180;51.438;6.978;2023-07-08T12:30:41;5.43;;;3.73;;
2338;SDS011;1180;51.438;6.978;2023-07-08T12:33:09;3.77;;;3.47;;
2338;SDS011;1180;51.438;6.978;2023-07-08T12:35:38;4.53;;;3.70;;
2338;SDS011;1180;51.438;6.978;2023-07-08T12:38:14;6.30;;;4.20;;
2338;SDS011;1180;51.438;6.978;2023-07-08T12:40:41;3.90;;;3.50;;
2338;SDS011;1180;51.438;6.978;2023-07-08T12:43:09;5.30;;;4.60;;
2338;SDS011;1180;51.438;6.978;2023-07-08T12:45:35;4.13;;;3.83;;
2338;SDS011;1180;51.438;6.978;2023-07-08T12:48:02;4.17;;;3.47;;
2338;SDS011;1180;51.438;6.978;2023-07-08T12:50:28;4.50;;;3.90;;
2338;SDS011;1180;51.438;6.978;2023-07-08T12:52:54;4.73;;;4.30;;
2338;SDS011;1180;51.438;6.978;2023-07-08T12:55:21;4.13;;;3.83;;
2338;SDS011;1180;51.438;6.978;2023-07-08T12:57:49;5.50;;;4.23;;
2338;SDS011;1180;51.438;6.978;2023-07-08T13:00:38;4.40;;;3.57;;
2338;SDS011;1180;51.438;6.978;2023-07-08T13:03:05;5.07;;;3.67;;
2338;SDS011;1180;51.438;6.978;2023-07-08T13:05:37;5.93;;;3.90;;
2338;SDS011;1180;51.438;6.978;2023-07-08T13:08:05;4.03;;;3.70;;
2338;SDS011;1180;51.438;6.978;2023-07-08T13:10:32;3.27;;;3.07;;
2338;SDS011;1180;51.438;6.978;2023-07-08T13:13:01;4.40;;;3.70;;
2338;SDS011;1180;51.438;6.978;2023-07-08T13:15:33;4.63;;;3.80;;
2338;SDS011;1180;51.438;6.978;2023-07-08T13:18:03;4.90;;;4.40;;
2338;SDS011;1180;51.438;6.978;2023-07-08T13:20:29;4.20;;;3.90;;
2338;SDS011;1180;51.438;6.978;2023-07-08T13:22:57;5.30;;;4.20;;
2338;SDS011;1180;51.438;6.978;2023-07-08T13:25:29;5.23;;;4.20;;
2338;SDS011;1180;51.438;6.978;2023-07-08T13:28:00;4.33;;;3.80;;
2338;SDS011;1180;51.438;6.978;2023-07-08T13:30:39;4.13;;;3.70;;
2338;SDS011;1180;51.438;6.978;2023-07-08T13:33:04;5.97;;;5.23;;
2338;SDS011;1180;51.438;6.978;2023-07-08T13:35:36;5.07;;;4.57;;
2338;SDS011;1180;51.438;6.978;2023-07-08T13:38:04;5.77;;;4.40;;
2338;SDS011;1180;51.438;6.978;2023-07-08T13:40:31;4.37;;;3.50;;
2338;SDS011;1180;51.438;6.978;2023-07-08T13:42:57;3.83;;;3.50;;
2338;SDS011;1180;51.438;6.978;2023-07-08T13:45:24;4.03;;;3.70;;
2338;SDS011;1180;51.438;6.978;2023-07-08T13:48:53;5.63;;;4.20;;
2338;SDS011;1180;51.438;6.978;2023-07-08T13:51:07;6.27;;;3.77;;
2338;SDS011;1180;51.438;6.978;2023-07-08T13:56:04;4.63;;;4.20;;
2338;SDS011;1180;51.438;6.978;2023-07-08T13:58:41;9.37;;;5.27;;
2338;SDS011;1180;51.438;6.978;2023-07-08T14:01:19;5.30;;;3.50;;
2338;SDS011;1180;51.438;6.978;2023-07-08T14:03:47;4.20;;;3.80;;
2338;SDS011;1180;51.438;6.978;2023-07-08T14:06:17;4.50;;;4.10;;
2338;SDS011;1180;51.438;6.978;2023-07-08T14:08:44;4.77;;;3.97;;
2338;SDS011;1180;51.438;6.978;2023-07-08T14:11:10;4.37;;;4.00;;
2338;SDS011;1180;51.438;6.978;2023-07-08T14:13:36;5.20;;;4.70;;
2338;SDS011;1180;51.438;6.978;2023-07-08T14:16:02;4.73;;;4.23;;
2338;SDS011;1180;51.438;6.978;2023-07-08T14:18:31;7.50;;;4.33;;
2338;SDS011;1180;51.438;6.978;2023-07-08T14:20:57;3.80;;;3.50;;
2338;SDS011;1180;51.438;6.978;2023-07-08T14:23:23;4.70;;;3.80;;
2338;SDS011;1180;51.438;6.978;2023-07-08T14:25:49;4.23;;;3.93;;
2338;SDS011;1180;51.438;6.978;2023-07-08T14:28:15;4.70;;;3.73;;
2338;SDS011;1180;51.438;6.978;2023-07-08T14:30:43;4.30;;;3.90;;
2338;SDS011;1180;51.438;6.978;2023-07-08T14:33:11;5.10;;;4.67;;
2338;SDS011;1180;51.438;6.978;2023-07-08T14:35:38;5.70;;;4.23;;
2338;SDS011;1180;51.438;6.978;2023-07-08T14:38:11;5.80;;;4.77;;
2338;SDS011;1180;51.438;6.978;2023-07-08T14:40:39;4.53;;;4.13;;
2338;SDS011;1180;51.438;6.978;2023-07-08T14:43:10;4.43;;;3.70;;
2338;SDS011;1180;51.438;6.978;2023-07-08T14:45:50;3.90;;;3.50;;
2338;SDS011;1180;51.438;6.978;2023-07-08T14:48:18;3.57;;;3.27;;
2338;SDS011;1180;51.438;6.978;2023-07-08T14:50:44;2.90;;;2.70;;
2338;SDS011;1180;51.438;6.978;2023-07-08T14:53:12;3.87;;;3.47;;
2338;SDS011;1180;51.438;6.978;2023-07-08T14:55:39;3.97;;;3.67;;
2338;SDS011;1180;51.438;6.978;2023-07-08T14:58:05;3.40;;;3.10;;
2338;SDS011;1180;51.438;6.978;2023-07-08T15:00:31;9.23;;;3.97;;
2338;SDS011;1180;51.438;6.978;2023-07-08T15:02:57;3.90;;;3.43;;
2338;SDS011;1180;51.438;6.978;2023-07-08T15:05:24;3.50;;;3.20;;
2338;SDS011;1180;51.438;6.978;2023-07-08T15:07:56;3.50;;;3.20;;
2338;SDS011;1180;51.438;6.978;2023-07-08T15:10:27;3.47;;;3.13;;
2338;SDS011;1180;51.438;6.978;2023-07-08T15:12:55;3.70;;;3.40;;
2338;SDS011;1180;51.438;6.978;2023-07-08T15:15:29;4.17;;;3.10;;
2338;SDS011;1180;51.438;6.978;2023-07-08T15:17:58;3.73;;;3.43;;
2338;SDS011;1180;51.438;6.978;2023-07-08T15:20:25;3.70;;;3.33;;
2338;SDS011;1180;51.438;6.978;2023-07-08T15:22:51;5.23;;;3.40;;
2338;SDS011;1180;51.438;6.978;2023-07-08T15:25:17;3.60;;;3.30;;
2338;SDS011;1180;51.438;6.978;2023-07-08T15:27:45;6.33;;;3.90;;
2338;SDS011;1180;51.438;6.978;2023-07-08T15:30:20;3.53;;;3.27;;
2338;SDS011;1180;51.438;6.978;2023-07-08T15:32:48;5.33;;;3.50;;
2338;SDS011;1180;51.438;6.978;2023-07-08T15:35:16;4.10;;;3.37;;
2338;SDS011;1180;51.438;6.978;2023-07-08T15:37:43;4.10;;;3.00;;
2338;SDS011;1180;51.438;6.978;2023-07-08T15:40:14;4.20;;;3.10;;
2338;SDS011;1180;51.438;6.978;2023-07-08T15:42:41;4.50;;;3.53;;
2338;SDS011;1180;51.438;6.978;2023-07-08T15:45:13;3.97;;;3.60;;
2338;SDS011;1180;51.438;6.978;2023-07-08T15:47:50;3.90;;;3.50;;
2338;SDS011;1180;51.438;6.978;2023-07-08T15:50:16;4.00;;;3.60;;
2338;SDS011;1180;51.438;6.978;2023-07-08T15:52:44;8.37;;;4.30;;
2338;SDS011;1180;51.438;6.978;2023-07-08T15:55:11;5.60;;;3.10;;
2338;SDS011;1180;51.438;6.978;2023-07-08T15:57:45;5.30;;;3.37;;
2338;SDS011;1180;51.438;6.978;2023-07-08T16:00:18;4.23;;;3.83;;
2338;SDS011;1180;51.438;6.978;2023-07-08T16:02:47;6.80;;;4.00;;
2338;SDS011;1180;51.438;6.978;2023-07-08T16:05:16;4.70;;;3.50;;
2338;SDS011;1180;51.438;6.978;2023-07-08T16:07:42;4.80;;;4.30;;
2338;SDS011;1180;51.438;6.978;2023-07-08T16:10:08;6.10;;;4.53;;
2338;SDS011;1180;51.438;6.978;2023-07-08T16:12:34;4.07;;;3.67;;
2338;SDS011;1180;51.438;6.978;2023-07-08T16:15:00;3.90;;;3.20;;
2338;SDS011;1180;51.438;6.978;2023-07-08T16:17:28;4.40;;;3.50;;
2338;SDS011;1180;51.438;6.978;2023-07-08T16:19:57;3.90;;;3.60;;
2338;SDS011;1180;51.438;6.978;2023-07-08T16:22:23;3.90;;;3.50;;
2338;SDS011;1180;51.438;6.978;2023-07-08T16:24:50;7.53;;;3.90;;
2338;SDS011;1180;51.438;6.978;2023-07-08T16:27:15;3.60;;;3.27;;
2338;SDS011;1180;51.438;6.978;2023-07-08T16:29:41;3.20;;;3.00;;
2338;SDS011;1180;51.438;6.978;2023-07-08T16:32:11;4.27;;;3.87;;
2338;SDS011;1180;51.438;6.978;2023-07-08T16:34:39;4.00;;;3.57;;
2338;SDS011;1180;51.438;6.978;2023-07-08T16:37:04;5.40;;;4.20;;